Time,TemperatureF,DewpointF,PressureIn,WindDirection,WindDirectionDegrees,WindSpeedMPH,WindSpeedGustMPH,Humidity,HourlyPrecipIn,Conditions,Clouds,dailyrainin,SoftwareType,DateUTC
2013-10-09 00:06:00,67.1,51.0,30.01,SE,128,3.0,7.0,57,0.00,,,0.00,weatherlink.com 1.10,2013-10-09 05:06:00,
2013-10-09 00:21:00,66.7,52.0,30.02,SSE,152,4.0,6.0,59,0.00,,,0.00,weatherlink.com 1.10,2013-10-09 05:21:00,
2013-10-09 00:36:00,66.6,52.0,30.01,ESE,121,8.0,10.0,60,0.00,,,0.00,weatherlink.com 1.10,2013-10-09 05:36:00,
2013-10-09 00:51:00,66.3,53.0,30.01,SSE,147,5.0,10.0,62,0.00,,,0.00,weatherlink.com 1.10,2013-10-09 05:51:00,
2013-10-09 01:06:00,66.0,52.0,30.01,SE,131,5.0,10.0,62,0.00,,,0.00,weatherlink.com 1.10,2013-10-09 06:06:00,
2013-10-09 01:21:00,65.5,53.0,30.01,ESE,111,4.0,7.0,64,0.00,,,0.00,weatherlink.com 1.10,2013-10-09 06:21:00,
2013-10-09 01:36:00,65.1,53.0,30.01,East,89,2.0,7.0,65,0.00,,,0.00,weatherlink.com 1.10,2013-10-09 06:36:00,
2013-10-09 01:51:00,64.7,53.0,30.01,SE,142,2.0,4.0,66,0.00,,,0.00,weatherlink.com 1.10,2013-10-09 06:51:00,
2013-10-09 02:06:00,64.7,53.0,30.01,SE,136,3.0,6.0,66,0.00,,,0.00,weatherlink.com 1.10,2013-10-09 07:06:00,
2013-10-09 02:21:00,64.3,53.0,30.02,ESE,113,4.0,5.0,67,0.00,,,0.00,weatherlink.com 1.10,2013-10-09 07:21:00,
2013-10-09 02:36:00,64.1,53.0,30.02,ESE,110,2.0,6.0,68,0.00,,,0.00,weatherlink.com 1.10,2013-10-09 07:36:00,
2013-10-09 02:51:00,63.6,53.0,30.01,SE,128,3.0,7.0,69,0.00,,,0.00,weatherlink.com 1.10,2013-10-09 07:51:00,
2013-10-09 03:06:00,63.2,54.0,30.01,SSE,148,4.0,5.0,71,0.00,,,0.00,weatherlink.com 1.10,2013-10-09 08:06:00,
2013-10-09 03:21:00,63.2,53.0,30.01,East,83,1.0,5.0,70,0.00,,,0.00,weatherlink.com 1.10,2013-10-09 08:21:00,
2013-10-09 03:36:00,59.1,57.0,30.01,ESE,114,2.0,3.0,91,0.00,,,0.00,weatherlink.com 1.10,2013-10-09 08:36:00,
2013-10-09 03:52:00,57.9,56.0,30.01,ESE,114,1.0,2.0,93,0.00,,,0.00,weatherlink.com 1.10,2013-10-09 08:52:00,
2013-10-09 04:07:00,58.3,57.0,30.02,SSE,157,2.0,9.0,94,0.00,,,0.00,weatherlink.com 1.10,2013-10-09 09:07:00,
2013-10-09 04:22:00,58.6,57.0,30.01,ESE,108,4.0,6.0,94,0.00,,,0.00,weatherlink.com 1.10,2013-10-09 09:22:00,
2013-10-09 04:37:00,58.4,57.0,30.01,SE,125,5.0,7.0,94,0.00,,,0.00,weatherlink.com 1.10,2013-10-09 09:37:00,
2013-10-09 04:52:00,58.3,57.0,30.02,SE,141,4.0,5.0,94,0.00,,,0.00,weatherlink.com 1.10,2013-10-09 09:52:00,
2013-10-09 05:07:00,58.3,57.0,30.02,SE,131,3.0,4.0,95,0.00,,,0.00,weatherlink.com 1.10,2013-10-09 10:07:00,
2013-10-09 05:22:00,58.5,57.0,30.02,SE,131,2.0,4.0,93,0.00,,,0.00,weatherlink.com 1.10,2013-10-09 10:22:00,
2013-10-09 05:37:00,59.0,56.0,30.02,SE,131,1.0,3.0,89,0.00,,,0.00,weatherlink.com 1.10,2013-10-09 10:37:00,
2013-10-09 05:52:00,58.9,55.0,30.03,SSE,148,2.0,3.0,88,0.00,,,0.00,weatherlink.com 1.10,2013-10-09 10:52:00,
2013-10-09 06:07:00,58.9,55.0,30.03,SE,135,1.0,3.0,87,0.00,,,0.00,weatherlink.com 1.10,2013-10-09 11:07:00,
2013-10-09 06:22:00,59.0,55.0,30.04,SSE,155,1.0,3.0,87,0.00,,,0.00,weatherlink.com 1.10,2013-10-09 11:22:00,
2013-10-09 06:37:00,58.8,55.0,30.04,SE,126,1.0,3.0,86,0.00,,,0.00,weatherlink.com 1.10,2013-10-09 11:37:00,
2013-10-09 06:52:00,58.8,55.0,30.04,South,177,2.0,-999.0,86,-99.99,,,0.00,weatherlink.com 1.10,2013-10-09 11:52:00,
2013-10-09 07:07:00,59.3,55.0,30.04,ESE,113,2.0,6.0,84,0.00,,,0.00,weatherlink.com 1.10,2013-10-09 12:07:00,
2013-10-09 07:22:00,59.3,55.0,30.04,SE,136,3.0,5.0,84,0.00,,,0.00,weatherlink.com 1.10,2013-10-09 12:22:00,
2013-10-09 07:37:00,59.2,55.0,30.05,SE,145,2.0,3.0,85,0.00,,,0.00,weatherlink.com 1.10,2013-10-09 12:37:00,
2013-10-09 07:52:00,59.3,55.0,30.05,SE,141,0.0,3.0,85,0.00,,,0.00,weatherlink.com 1.10,2013-10-09 12:52:00,
2013-10-09 08:07:00,60.6,55.0,30.06,SE,139,3.0,5.0,83,0.00,,,0.00,weatherlink.com 1.10,2013-10-09 13:07:00,
2013-10-09 08:22:00,61.3,55.0,30.06,SE,140,4.0,8.0,81,0.00,,,0.00,weatherlink.com 1.10,2013-10-09 13:22:00,
2013-10-09 08:37:00,62.2,56.0,30.06,SSE,148,3.0,7.0,79,0.00,,,0.00,weatherlink.com 1.10,2013-10-09 13:37:00,
2013-10-09 08:52:00,62.9,56.0,30.07,South,186,5.0,8.0,77,0.00,,,0.00,weatherlink.com 1.10,2013-10-09 13:52:00,
2013-10-09 09:07:00,63.5,56.0,30.07,SE,143,3.0,8.0,76,0.00,,,0.00,weatherlink.com 1.10,2013-10-09 14:07:00,
2013-10-09 09:22:00,64.8,56.0,30.08,South,174,3.0,7.0,73,0.00,,,0.00,weatherlink.com 1.10,2013-10-09 14:22:00,
2013-10-09 09:37:00,65.8,56.0,30.08,SSE,165,3.0,7.0,71,0.00,,,0.00,weatherlink.com 1.10,2013-10-09 14:37:00,
2013-10-09 09:52:00,67.0,56.0,30.08,South,180,4.0,7.0,67,0.00,,,0.00,weatherlink.com 1.10,2013-10-09 14:52:00,
2013-10-09 10:07:00,68.4,56.0,30.08,South,186,7.0,8.0,64,0.00,,,0.00,weatherlink.com 1.10,2013-10-09 15:07:00,
2013-10-09 10:22:00,69.1,56.0,30.09,South,188,4.0,9.0,63,0.00,,,0.00,weatherlink.com 1.10,2013-10-09 15:22:00,
2013-10-09 10:37:00,69.6,55.0,30.09,SSW,208,3.0,8.0,61,0.00,,,0.00,weatherlink.com 1.10,2013-10-09 15:37:00,
2013-10-09 10:52:00,71.1,57.0,30.08,SSW,198,3.0,8.0,62,0.00,,,0.00,weatherlink.com 1.10,2013-10-09 15:52:00,
2013-10-09 11:07:00,73.6,55.0,30.09,South,180,3.0,9.0,52,0.00,,,0.00,weatherlink.com 1.10,2013-10-09 16:07:00,
2013-10-09 11:22:00,74.1,54.0,30.08,SW,234,6.0,12.0,50,0.00,,,0.00,weatherlink.com 1.10,2013-10-09 16:22:00,
2013-10-09 11:37:00,74.2,55.0,30.08,SSE,152,8.0,12.0,51,0.00,,,0.00,weatherlink.com 1.10,2013-10-09 16:37:00,
2013-10-09 11:53:00,75.4,55.0,30.08,SW,228,9.0,13.0,49,0.00,,,0.00,weatherlink.com 1.10,2013-10-09 16:53:00,
2013-10-09 12:08:00,75.8,55.0,30.07,SW,226,5.0,15.0,48,0.00,,,0.00,weatherlink.com 1.10,2013-10-09 17:08:00,
2013-10-09 12:23:00,77.0,53.0,30.07,WSW,243,4.0,10.0,44,0.00,,,0.00,weatherlink.com 1.10,2013-10-09 17:23:00,
2013-10-09 12:38:00,78.2,55.0,30.06,SSW,210,5.0,9.0,45,0.00,,,0.00,weatherlink.com 1.10,2013-10-09 17:38:00,
2013-10-09 12:53:00,78.8,54.0,30.06,SW,214,10.0,12.0,42,0.00,,,0.00,weatherlink.com 1.10,2013-10-09 17:53:00,
2013-10-09 13:08:00,79.3,54.0,30.05,South,169,5.0,13.0,42,0.00,,,0.00,weatherlink.com 1.10,2013-10-09 18:08:00,
2013-10-09 13:23:00,80.3,55.0,30.04,SSE,166,10.0,12.0,42,0.00,,,0.00,weatherlink.com 1.10,2013-10-09 18:23:00,
2013-10-09 13:39:00,80.3,54.0,30.03,SSW,205,7.0,11.0,40,0.00,,,0.00,weatherlink.com 1.10,2013-10-09 18:39:00,
2013-10-09 13:53:00,80.1,54.0,30.03,SE,127,8.0,14.0,41,0.00,,,0.00,weatherlink.com 1.10,2013-10-09 18:53:00,
2013-10-09 14:08:00,81.1,55.0,30.02,South,169,3.0,11.0,41,0.00,,,0.00,weatherlink.com 1.10,2013-10-09 19:08:00,
2013-10-09 14:23:00,80.7,54.0,30.01,SE,138,4.0,12.0,40,0.00,,,0.00,weatherlink.com 1.10,2013-10-09 19:23:00,
2013-10-09 14:38:00,81.1,55.0,30.00,SW,217,8.0,12.0,41,0.00,,,0.00,weatherlink.com 1.10,2013-10-09 19:38:00,
2013-10-09 14:53:00,81.9,56.0,30.00,SSE,159,7.0,9.0,41,0.00,,,0.00,weatherlink.com 1.10,2013-10-09 19:53:00,
2013-10-09 15:08:00,82.0,55.0,29.99,SE,129,7.0,13.0,40,0.00,,,0.00,weatherlink.com 1.10,2013-10-09 20:08:00,
2013-10-09 15:23:00,81.9,54.0,29.99,SE,131,7.0,13.0,38,0.00,,,0.00,weatherlink.com 1.10,2013-10-09 20:23:00,
2013-10-09 15:38:00,82.7,55.0,29.99,SSW,195,5.0,15.0,38,0.00,,,0.00,weatherlink.com 1.10,2013-10-09 20:38:00,
2013-10-09 15:53:00,82.5,54.0,29.99,ESE,118,6.0,11.0,38,0.00,,,0.00,weatherlink.com 1.10,2013-10-09 20:53:00,
2013-10-09 16:08:00,82.6,53.0,29.99,SE,129,6.0,14.0,36,0.00,,,0.00,weatherlink.com 1.10,2013-10-09 21:08:00,
2013-10-09 16:23:00,82.8,53.0,29.99,SSE,150,3.0,11.0,36,0.00,,,0.00,weatherlink.com 1.10,2013-10-09 21:23:00,
2013-10-09 16:38:00,83.0,53.0,29.99,SE,136,11.0,13.0,36,0.00,,,0.00,weatherlink.com 1.10,2013-10-09 21:38:00,
2013-10-09 16:53:00,82.9,53.0,29.99,SSE,152,6.0,12.0,36,0.00,,,0.00,weatherlink.com 1.10,2013-10-09 21:53:00,
2013-10-09 17:08:00,82.5,52.0,29.98,SE,126,9.0,12.0,35,0.00,,,0.00,weatherlink.com 1.10,2013-10-09 22:08:00,
2013-10-09 17:23:00,82.2,53.0,29.98,South,176,8.0,10.0,36,0.00,,,0.00,weatherlink.com 1.10,2013-10-09 22:23:00,
2013-10-09 17:38:00,82.0,53.0,29.98,SSE,165,4.0,10.0,37,0.00,,,0.00,weatherlink.com 1.10,2013-10-09 22:38:00,
2013-10-09 17:53:00,81.7,54.0,29.98,SE,135,5.0,11.0,38,0.00,,,0.00,weatherlink.com 1.10,2013-10-09 22:53:00,
2013-10-09 18:08:00,81.0,53.0,29.98,SE,142,5.0,12.0,38,0.00,,,0.00,weatherlink.com 1.10,2013-10-09 23:08:00,
2013-10-09 18:23:00,80.7,53.0,29.97,SSW,193,5.0,10.0,38,0.00,,,0.00,weatherlink.com 1.10,2013-10-09 23:23:00,
2013-10-09 18:38:00,80.1,54.0,29.98,ESE,108,2.0,6.0,41,0.00,,,0.00,weatherlink.com 1.10,2013-10-09 23:38:00,
2013-10-09 18:53:00,78.8,55.0,29.98,SE,129,5.0,8.0,44,0.00,,,0.00,weatherlink.com 1.10,2013-10-09 23:53:00,
2013-10-09 19:08:00,77.5,55.0,29.98,SE,137,5.0,6.0,46,0.00,,,0.00,weatherlink.com 1.10,2013-10-10 00:08:00,
2013-10-09 19:23:00,76.7,54.0,29.98,SE,125,3.0,5.0,46,0.00,,,0.00,weatherlink.com 1.10,2013-10-10 00:23:00,
2013-10-09 19:38:00,75.9,54.0,29.98,SE,128,2.0,5.0,46,0.00,,,0.00,weatherlink.com 1.10,2013-10-10 00:38:00,
2013-10-09 19:53:00,75.0,53.0,29.98,SE,142,3.0,5.0,47,0.00,,,0.00,weatherlink.com 1.10,2013-10-10 00:53:00,
2013-10-09 20:08:00,74.0,54.0,29.98,ESE,114,3.0,6.0,49,0.00,,,0.00,weatherlink.com 1.10,2013-10-10 01:08:00,
2013-10-09 20:23:00,73.5,54.0,29.98,SE,127,4.0,6.0,51,0.00,,,0.00,weatherlink.com 1.10,2013-10-10 01:23:00,
2013-10-09 20:38:00,72.8,55.0,29.99,SE,131,3.0,5.0,53,0.00,,,0.00,weatherlink.com 1.10,2013-10-10 01:38:00,
2013-10-09 20:53:00,72.1,55.0,29.99,SE,132,1.0,4.0,55,0.00,,,0.00,weatherlink.com 1.10,2013-10-10 01:53:00,
2013-10-09 21:08:00,71.3,55.0,30.00,ESE,115,3.0,5.0,56,0.00,,,0.00,weatherlink.com 1.10,2013-10-10 02:08:00,
2013-10-09 21:23:00,70.8,55.0,30.00,SE,129,1.0,4.0,57,0.00,,,0.00,weatherlink.com 1.10,2013-10-10 02:23:00,
2013-10-09 21:38:00,70.3,55.0,30.01,SE,136,2.0,4.0,58,0.00,,,0.00,weatherlink.com 1.10,2013-10-10 02:38:00,
2013-10-09 21:53:00,69.9,55.0,30.01,ESE,111,3.0,4.0,59,0.00,,,0.00,weatherlink.com 1.10,2013-10-10 02:53:00,
2013-10-09 22:08:00,69.6,54.0,30.02,SE,127,3.0,3.0,59,0.00,,,0.00,weatherlink.com 1.10,2013-10-10 03:08:00,
2013-10-09 22:23:00,69.3,55.0,30.02,SE,129,3.0,4.0,60,0.00,,,0.00,weatherlink.com 1.10,2013-10-10 03:23:00,
2013-10-09 22:38:00,69.3,55.0,30.02,SE,132,3.0,4.0,60,0.00,,,0.00,weatherlink.com 1.10,2013-10-10 03:38:00,
2013-10-09 23:08:00,69.2,55.0,30.02,SSE,149,4.0,4.0,61,0.00,,,0.00,weatherlink.com 1.10,2013-10-10 04:08:00,
2013-10-09 23:23:00,69.0,55.0,30.02,SSE,148,3.0,5.0,62,0.00,,,0.00,weatherlink.com 1.10,2013-10-10 04:23:00,
2013-10-09 23:38:00,68.6,55.0,30.02,SE,135,1.0,4.0,63,0.00,,,0.00,weatherlink.com 1.10,2013-10-10 04:38:00,
2013-10-09 23:53:00,68.4,56.0,30.02,SE,134,2.0,3.0,64,0.00,,,0.00,weatherlink.com 1.10,2013-10-10 04:53:00,